Time;durP1;ratioP1;P1;durP2;ratioP2;P2;SDS_P1;SDS_P2;PMS_P1;PMS_P2;Temp;Humidity;BMP_temperature;BMP_pressure;BME280_temperature;BME280_humidity;BME280_pressure;Samples;Min_cycle;Max_cycle;Signal;HPM_P1;HPM_P2
2022/10/05 06:00:13;;;;;;;3.20;1.55;;;;;;;;;;7406019;19;20507;-83
2022/10/05 11:05:19;;;;;;;1.48;0.60;;;;;;;;;;7411052;19;20010;-82
2022/10/05 11:08:06;;;;;;;1.40;0.60;;;;;;;;;;7408340;19;20044;-82
2022/10/05 11:10:34;;;;;;;1.88;0.75;;;;;;;;;;7407473;19;20046;-82
2022/10/05 11:13:27;;;;;;;2.92;0.63;;;;;;;;;;7405068;19;20030;-82
2022/10/05 11:16:12;;;;;;;1.90;0.57;;;;;;;;;;7407118;19;20003;-82
2022/10/05 11:19:11;;;;;;;1.73;1.10;;;;;;;;;;7406219;19;20388;-82
2022/10/05 11:22:08;;;;;;;2.47;1.10;;;;;;;;;;7405954;19;20006;-82
2022/10/05 11:25:26;;;;;;;1.65;0.60;;;;;;;;;;7407897;19;20019;-82
2022/10/05 11:28:23;;;;;;;0.85;0.60;;;;;;;;;;7407996;19;20003;-82
2022/10/05 11:31:00;;;;;;;3.22;0.50;;;;;;;;;;7407877;19;20021;-82
2022/10/05 11:37:06;;;;;;;1.83;0.70;;;;;;;;;;7404300;19;20032;-83
2022/10/05 11:43:31;;;;;;;0.55;0.55;;;;;;;;;;7399309;19;20022;-79
2022/10/05 11:49:26;;;;;;;0.52;0.50;;;;;;;;;;7402380;19;20068;-85
2022/10/05 11:52:33;;;;;;;0.77;0.45;;;;;;;;;;7400880;19;20510;-81
2022/10/05 11:55:36;;;;;;;1.05;0.55;;;;;;;;;;7395934;19;20010;-80
2022/10/05 12:00:48;;;;;;;2.45;0.50;;;;;;;;;;7399443;19;20048;-81
2022/10/05 12:03:17;;;;;;;8.30;1.60;;;;;;;;;;7398467;19;20069;-67
2022/10/05 12:06:02;;;;;;;5.60;1.17;;;;;;;;;;7399007;19;20027;-65
2022/10/05 12:08:28;;;;;;;4.55;1.10;;;;;;;;;;7395357;19;20010;-65
2022/10/05 12:11:10;;;;;;;4.57;1.20;;;;;;;;;;7397911;19;20018;-65
2022/10/05 12:13:45;;;;;;;1.20;0.90;;;;;;;;;;7397056;19;20014;-65
2022/10/05 12:16:51;;;;;;;3.15;0.90;;;;;;;;;;7399397;19;20022;-65
2022/10/05 12:19:26;;;;;;;2.87;0.90;;;;;;;;;;7394221;19;20043;-65
2022/10/05 12:22:02;;;;;;;4.22;0.73;;;;;;;;;;7396979;19;20269;-65
2022/10/05 12:24:37;;;;;;;4.63;0.80;;;;;;;;;;7397421;19;20029;-65
2022/10/05 12:27:10;;;;;;;1.67;0.73;;;;;;;;;;7396299;19;20022;-65
2022/10/05 12:29:53;;;;;;;4.28;0.82;;;;;;;;;;7394483;19;20077;-65
2022/10/05 12:32:30;;;;;;;2.70;1.10;;;;;;;;;;7393772;19;20034;-65
2022/10/05 12:35:21;;;;;;;4.22;0.90;;;;;;;;;;7395224;19;20017;-65
2022/10/05 12:37:58;;;;;;;3.17;0.70;;;;;;;;;;7398756;19;20010;-65
2022/10/05 12:40:51;;;;;;;2.47;0.60;;;;;;;;;;7396347;19;20027;-65
2022/10/05 12:43:47;;;;;;;1.55;0.82;;;;;;;;;;7398574;19;20482;-65
2022/10/05 12:46:30;;;;;;;1.70;0.80;;;;;;;;;;7394996;19;21724;-65
2022/10/05 12:49:10;;;;;;;1.70;0.65;;;;;;;;;;7394015;19;20021;-66
2022/10/05 12:51:43;;;;;;;2.47;0.82;;;;;;;;;;7399002;19;20017;-65
2022/10/05 12:54:27;;;;;;;3.70;0.80;;;;;;;;;;7393371;19;20021;-65
2022/10/05 12:56:57;;;;;;;2.85;0.90;;;;;;;;;;7393257;19;20014;-65
2022/10/05 12:59:35;;;;;;;2.72;0.65;;;;;;;;;;7394952;19;20017;-65
2022/10/05 13:02:23;;;;;;;2.28;0.65;;;;;;;;;;7396270;19;20086;-65
2022/10/05 13:04:57;;;;;;;1.75;0.57;;;;;;;;;;7394637;19;21001;-65
2022/10/05 13:07:44;;;;;;;2.15;0.40;;;;;;;;;;7394206;19;20006;-65
2022/10/05 13:10:32;;;;;;;3.40;0.63;;;;;;;;;;7394761;19;20006;-65
2022/10/05 13:13:09;;;;;;;3.47;0.60;;;;;;;;;;7396390;19;20029;-65
2022/10/05 13:16:10;;;;;;;4.13;0.98;;;;;;;;;;7394833;19;20354;-65
2022/10/05 13:19:08;;;;;;;2.75;0.50;;;;;;;;;;7391811;19;20041;-65
2022/10/05 13:21:46;;;;;;;9.15;0.70;;;;;;;;;;7392168;19;19998;-65
2022/10/05 13:24:25;;;;;;;1.70;0.70;;;;;;;;;;7394662;19;20006;-65
2022/10/05 13:27:12;;;;;;;1.15;0.70;;;;;;;;;;7396315;19;20007;-66
2022/10/05 13:29:44;;;;;;;3.72;0.80;;;;;;;;;;7394347;19;20018;-65
2022/10/05 13:32:24;;;;;;;1.70;0.65;;;;;;;;;;7393543;19;20567;-65
2022/10/05 13:35:07;;;;;;;0.68;0.50;;;;;;;;;;7394967;19;20013;-66
2022/10/05 13:37:45;;;;;;;2.17;0.88;;;;;;;;;;7395794;19;20021;-66
2022/10/05 13:40:32;;;;;;;1.33;0.70;;;;;;;;;;7391511;19;20085;-65
2022/10/05 13:43:22;;;;;;;1.50;0.60;;;;;;;;;;7393273;19;20082;-65
2022/10/05 13:45:50;;;;;;;2.45;0.60;;;;;;;;;;7393537;19;20038;-66
2022/10/05 13:48:39;;;;;;;2.55;0.70;;;;;;;;;;7395340;19;20716;-65
2022/10/05 13:51:10;;;;;;;1.80;0.60;;;;;;;;;;7392116;19;19999;-65
2022/10/05 13:53:51;;;;;;;1.77;0.60;;;;;;;;;;7393951;19;20499;-66
2022/10/05 13:56:29;;;;;;;0.95;0.60;;;;;;;;;;7393306;19;20021;-65
2022/10/05 13:59:10;;;;;;;2.67;0.65;;;;;;;;;;7389699;19;20099;-65
2022/10/05 14:02:09;;;;;;;2.05;0.60;;;;;;;;;;7390366;19;20011;-66
2022/10/05 14:05:09;;;;;;;0.82;0.60;;;;;;;;;;7394236;19;20015;-66
2022/10/05 14:08:02;;;;;;;3.22;0.80;;;;;;;;;;7394156;19;20018;-66
2022/10/05 14:10:39;;;;;;;0.65;0.40;;;;;;;;;;7391416;19;20014;-66
2022/10/05 14:13:41;;;;;;;0.55;0.50;;;;;;;;;;7391642;19;20159;-66
2022/10/05 14:16:06;;;;;;;0.43;0.43;;;;;;;;;;7392213;19;20090;-66
2022/10/05 14:18:35;;;;;;;1.75;0.40;;;;;;;;;;7389943;19;20011;-66
2022/10/05 14:21:15;;;;;;;1.02;0.52;;;;;;;;;;7393637;19;20017;-66
2022/10/05 14:23:40;;;;;;;1.63;0.70;;;;;;;;;;7388849;19;20018;-66
2022/10/05 14:26:30;;;;;;;2.67;0.85;;;;;;;;;;7394264;19;20202;-67
2022/10/05 14:29:12;;;;;;;1.23;0.65;;;;;;;;;;7388980;19;20045;-66
2022/10/05 14:31:52;;;;;;;0.85;0.50;;;;;;;;;;7393128;19;20114;-66
2022/10/05 14:34:26;;;;;;;0.85;0.40;;;;;;;;;;7390860;19;20021;-65
2022/10/05 14:37:01;;;;;;;2.53;0.57;;;;;;;;;;7392851;19;20009;-66
2022/10/05 14:39:31;;;;;;;1.73;0.63;;;;;;;;;;7391379;19;20023;-66
2022/10/05 14:42:06;;;;;;;0.68;0.60;;;;;;;;;;7386802;19;20010;-68
2022/10/05 14:44:31;;;;;;;2.10;0.60;;;;;;;;;;7391999;19;20006;-68
2022/10/05 14:47:14;;;;;;;0.82;0.50;;;;;;;;;;7391416;19;20027;-68
2022/10/05 14:49:49;;;;;;;2.78;0.75;;;;;;;;;;7393863;19;19999;-68
2022/10/05 14:52:35;;;;;;;2.13;0.50;;;;;;;;;;7392353;19;20085;-68
2022/10/05 14:55:22;;;;;;;0.50;0.50;;;;;;;;;;7390857;19;20342;-68
2022/10/05 14:58:06;;;;;;;1.20;0.60;;;;;;;;;;7392972;19;20418;-68
2022/10/05 15:00:51;;;;;;;2.35;0.43;;;;;;;;;;7391764;19;20074;-68
2022/10/05 15:03:49;;;;;;;4.22;0.75;;;;;;;;;;7391316;19;20058;-69
2022/10/05 15:06:25;;;;;;;1.23;0.60;;;;;;;;;;7390740;19;20014;-69
2022/10/05 15:08:53;;;;;;;1.25;0.50;;;;;;;;;;7391422;19;20014;-68
2022/10/05 15:11:29;;;;;;;0.75;0.50;;;;;;;;;;7392377;19;20006;-68
2022/10/05 15:13:55;;;;;;;0.98;0.47;;;;;;;;;;7394643;19;20006;-68
2022/10/05 15:16:24;;;;;;;0.88;0.50;;;;;;;;;;7397778;19;20010;-68
2022/10/05 15:19:14;;;;;;;1.95;0.77;;;;;;;;;;7397281;19;20070;-68
2022/10/05 15:22:00;;;;;;;0.75;0.45;;;;;;;;;;7394301;19;20014;-68
2022/10/05 15:24:33;;;;;;;0.73;0.40;;;;;;;;;;7394780;19;20142;-68
2022/10/05 15:27:02;;;;;;;0.50;0.50;;;;;;;;;;7398683;19;20557;-68
2022/10/05 15:29:56;;;;;;;0.90;0.55;;;;;;;;;;7396863;19;20007;-68
2022/10/05 15:32:36;;;;;;;1.38;0.50;;;;;;;;;;7395091;19;20094;-68
2022/10/05 15:35:30;;;;;;;1.20;0.50;;;;;;;;;;7396699;19;20010;-68
2022/10/05 15:38:11;;;;;;;1.90;0.73;;;;;;;;;;7398591;19;20024;-69
2022/10/05 15:40:39;;;;;;;3.80;0.65;;;;;;;;;;7397582;19;20011;-68
2022/10/05 15:43:45;;;;;;;0.82;0.40;;;;;;;;;;7396473;19;20017;-68
2022/10/05 15:46:16;;;;;;;1.63;0.50;;;;;;;;;;7398604;19;20083;-68
2022/10/05 15:49:07;;;;;;;1.35;0.40;;;;;;;;;;7398118;19;20006;-68
2022/10/05 15:51:48;;;;;;;1.45;0.60;;;;;;;;;;7396729;19;20757;-68
2022/10/05 15:54:42;;;;;;;0.73;0.60;;;;;;;;;;7399032;19;20017;-68
2022/10/05 15:57:19;;;;;;;1.05;0.47;;;;;;;;;;7397205;19;20039;-68
2022/10/05 15:59:52;;;;;;;0.43;0.40;;;;;;;;;;7395726;19;20022;-68
2022/10/05 16:02:24;;;;;;;0.82;0.50;;;;;;;;;;7395716;19;20475;-68
2022/10/05 16:08:53;;;;;;;0.77;0.40;;;;;;;;;;7398945;19;20008;-68
2022/10/05 16:11:24;;;;;;;1.92;0.40;;;;;;;;;;7397392;19;20043;-68
2022/10/05 16:13:59;;;;;;;0.85;0.40;;;;;;;;;;7396856;19;20032;-68
2022/10/05 16:16:30;;;;;;;;;;;;;;;;;;7397401;19;20425;-68
2022/10/05 16:19:07;;;;;;;0.95;0.40;;;;;;;;;;7396024;19;19939;-68
2022/10/05 16:21:45;;;;;;;0.52;0.28;;;;;;;;;;7395881;19;20010;-68
2022/10/05 16:24:44;;;;;;;0.93;0.40;;;;;;;;;;7393423;19;20022;-68
2022/10/05 16:27:32;;;;;;;0.60;0.60;;;;;;;;;;7394910;19;20022;-68
2022/10/05 16:30:07;;;;;;;0.93;0.60;;;;;;;;;;7398434;19;20021;-68
2022/10/05 16:32:39;;;;;;;0.85;0.35;;;;;;;;;;7394581;19;20078;-68
2022/10/05 16:35:14;;;;;;;1.20;0.30;;;;;;;;;;7396010;19;20002;-68
2022/10/05 16:38:04;;;;;;;0.40;0.40;;;;;;;;;;7397141;19;20019;-68
2022/10/05 16:41:02;;;;;;;0.30;0.30;;;;;;;;;;7393071;19;20038;-68
2022/10/05 16:43:38;;;;;;;0.45;0.40;;;;;;;;;;7396856;19;20031;-68
2022/10/05 16:46:18;;;;;;;0.68;0.60;;;;;;;;;;7394198;19;20482;-68
2022/10/05 16:49:21;;;;;;;0.80;0.50;;;;;;;;;;7396472;19;20035;-68
2022/10/05 16:52:00;;;;;;;0.63;0.43;;;;;;;;;;7397161;19;20431;-68
2022/10/05 16:54:36;;;;;;;0.60;0.38;;;;;;;;;;7393538;19;20014;-67
2022/10/05 16:57:09;;;;;;;1.02;0.60;;;;;;;;;;7395718;19;20351;-68
2022/10/05 16:59:57;;;;;;;1.08;0.30;;;;;;;;;;7396023;19;20010;-68
2022/10/05 17:02:48;;;;;;;1.20;0.43;;;;;;;;;;7390617;19;20031;-68
2022/10/05 17:05:53;;;;;;;2.22;0.70;;;;;;;;;;7397392;19;20027;-68
2022/10/05 17:08:44;;;;;;;1.73;0.60;;;;;;;;;;7396594;19;20030;-68
2022/10/05 17:11:29;;;;;;;1.73;0.50;;;;;;;;;;7395673;19;20343;-68
2022/10/05 17:14:00;;;;;;;0.60;0.40;;;;;;;;;;7394302;19;20053;-68
2022/10/05 17:17:14;;;;;;;0.30;0.30;;;;;;;;;;7395771;19;20041;-68
2022/10/05 17:19:54;;;;;;;1.98;0.40;;;;;;;;;;7395712;19;20030;-68
2022/10/05 17:22:25;;;;;;;0.68;0.30;;;;;;;;;;7392985;19;20023;-68
2022/10/05 17:24:56;;;;;;;0.63;0.50;;;;;;;;;;7395613;19;20015;-68
2022/10/05 17:27:25;;;;;;;0.30;0.30;;;;;;;;;;7394212;19;20036;-68
2022/10/05 17:29:52;;;;;;;1.25;0.35;;;;;;;;;;7390747;19;20010;-68
2022/10/05 17:32:18;;;;;;;1.30;0.60;;;;;;;;;;7394183;19;20037;-70
2022/10/05 17:34:59;;;;;;;1.23;0.98;;;;;;;;;;7396316;19;20006;-70
2022/10/05 17:37:37;;;;;;;9.82;1.00;;;;;;;;;;7395252;19;20036;-71
2022/10/05 17:40:27;;;;;;;5.18;1.27;;;;;;;;;;7397566;19;20010;-69
2022/10/05 17:43:03;;;;;;;4.25;1.10;;;;;;;;;;7394510;19;20006;-68
2022/10/05 17:45:48;;;;;;;5.00;0.90;;;;;;;;;;7392681;19;20340;-68
2022/10/05 17:48:39;;;;;;;5.43;1.45;;;;;;;;;;7396502;19;20013;-68
2022/10/05 17:57:04;;;;;;;6.82;1.10;;;;;;;;;;7395199;19;20420;-68
2022/10/05 17:59:44;;;;;;;8.93;1.30;;;;;;;;;;7396264;19;20014;-68
2022/10/05 18:02:18;;;;;;;11.02;1.25;;;;;;;;;;7393765;19;20017;-67
2022/10/05 18:04:49;;;;;;;7.57;1.20;;;;;;;;;;7395760;19;20031;-67
2022/10/05 18:07:23;;;;;;;1.02;0.65;;;;;;;;;;7396202;19;20102;-68
2022/10/05 18:09:53;;;;;;;4.70;0.90;;;;;;;;;;7393573;19;20520;-69
2022/10/05 18:12:23;;;;;;;4.78;1.08;;;;;;;;;;7395276;19;20137;-68
2022/10/05 18:15:00;;;;;;;3.58;1.00;;;;;;;;;;7393287;19;20750;-68
2022/10/05 18:17:50;;;;;;;7.50;1.10;;;;;;;;;;7394410;19;20006;-69
2022/10/05 18:20:25;;;;;;;8.70;1.05;;;;;;;;;;7395066;19;20466;-69
2022/10/05 18:23:00;;;;;;;2.88;0.93;;;;;;;;;;7391841;19;20092;-69
2022/10/05 18:25:32;;;;;;;2.97;0.80;;;;;;;;;;7394048;19;20010;-68
2022/10/05 18:28:04;;;;;;;4.15;0.82;;;;;;;;;;7391702;19;20474;-68
2022/10/05 18:31:09;;;;;;;8.80;1.35;;;;;;;;;;7392422;19;19995;-68
2022/10/05 18:33:48;;;;;;;3.70;1.13;;;;;;;;;;7389844;19;20485;-67
2022/10/05 18:36:22;;;;;;;3.28;1.02;;;;;;;;;;7392065;19;20007;-67
2022/10/05 18:38:58;;;;;;;4.80;0.98;;;;;;;;;;7391058;19;20017;-68
2022/10/05 18:42:02;;;;;;;6.55;0.95;;;;;;;;;;7390280;19;20030;-67
2022/10/05 18:44:38;;;;;;;4.18;0.90;;;;;;;;;;7384985;19;20015;-67
2022/10/05 18:47:31;;;;;;;2.35;0.77;;;;;;;;;;7388565;19;20011;-68
2022/10/05 18:50:09;;;;;;;2.75;0.77;;;;;;;;;;7399790;19;20035;-67
2022/10/05 18:52:48;;;;;;;9.02;1.15;;;;;;;;;;7400280;19;20003;-67
2022/10/05 18:55:46;;;;;;;5.65;1.23;;;;;;;;;;7399591;19;20010;-67
2022/10/05 18:58:30;;;;;;;5.63;1.10;;;;;;;;;;7399033;19;20014;-67
2022/10/05 19:00:55;;;;;;;3.88;1.00;;;;;;;;;;7400850;19;20013;-67
2022/10/05 19:03:50;;;;;;;5.85;1.15;;;;;;;;;;7401338;19;20002;-68
2022/10/05 19:06:23;;;;;;;8.55;1.50;;;;;;;;;;7399884;19;20015;-67
2022/10/05 19:09:14;;;;;;;3.65;1.08;;;;;;;;;;7399778;19;20359;-68
2022/10/05 19:12:18;;;;;;;4.60;0.93;;;;;;;;;;7400554;19;20035;-67
2022/10/05 19:14:53;;;;;;;7.10;1.25;;;;;;;;;;7398584;19;20018;-68
2022/10/05 19:17:30;;;;;;;6.22;1.10;;;;;;;;;;7400940;19;20002;-67
2022/10/05 19:20:07;;;;;;;6.15;1.10;;;;;;;;;;7401042;19;20003;-67
2022/10/05 19:22:45;;;;;;;5.25;1.23;;;;;;;;;;7396676;19;20019;-68
2022/10/05 19:25:36;;;;;;;2.47;0.95;;;;;;;;;;7399700;19;20031;-68
2022/10/05 19:28:16;;;;;;;7.18;1.33;;;;;;;;;;7397845;19;20616;-68
2022/10/05 19:31:14;;;;;;;4.72;1.00;;;;;;;;;;7397459;19;20002;-68
2022/10/05 19:34:15;;;;;;;2.35;0.80;;;;;;;;;;7395852;19;20473;-67
2022/10/05 19:36:54;;;;;;;4.88;1.00;;;;;;;;;;7399475;19;20002;-67
2022/10/05 19:39:37;;;;;;;4.05;1.10;;;;;;;;;;7400825;19;20017;-68
2022/10/05 19:42:19;;;;;;;5.28;1.23;;;;;;;;;;7395909;19;20358;-68
2022/10/05 19:44:55;;;;;;;3.40;0.93;;;;;;;;;;7399959;19;20003;-67
2022/10/05 19:47:42;;;;;;;2.10;0.75;;;;;;;;;;7400126;19;20482;-67
2022/10/05 19:50:20;;;;;;;4.53;1.40;;;;;;;;;;7400302;19;20078;-68
2022/10/05 19:52:49;;;;;;;6.18;1.42;;;;;;;;;;7396855;19;20498;-68
2022/10/05 19:55:25;;;;;;;4.10;1.15;;;;;;;;;;7399699;19;20038;-68
2022/10/05 19:57:56;;;;;;;9.15;1.60;;;;;;;;;;7399325;19;20508;-68
2022/10/05 20:00:30;;;;;;;3.10;1.05;;;;;;;;;;7398094;19;20006;-68
2022/10/05 20:03:14;;;;;;;3.40;1.20;;;;;;;;;;7396548;19;20003;-68
2022/10/05 20:05:39;;;;;;;2.40;0.90;;;;;;;;;;7398176;19;20354;-68
2022/10/05 20:08:06;;;;;;;4.95;1.05;;;;;;;;;;7399611;19;20467;-67
2022/10/05 20:10:31;;;;;;;7.60;1.02;;;;;;;;;;7398884;19;20477;-67
2022/10/05 20:12:59;;;;;;;5.45;1.02;;;;;;;;;;7397755;19;20010;-67
2022/10/05 20:21:38;;;;;;;6.20;1.88;;;;;;;;;;7397035;19;20002;-68
2022/10/05 20:24:07;;;;;;;4.93;1.10;;;;;;;;;;7398177;19;20003;-67
2022/10/05 20:29:21;;;;;;;5.90;1.08;;;;;;;;;;7400363;19;20016;-68
2022/10/05 20:31:46;;;;;;;2.70;1.10;;;;;;;;;;7394968;19;20006;-67
2022/10/05 20:34:11;;;;;;;4.35;1.35;;;;;;;;;;7399151;19;20018;-67
2022/10/05 20:36:38;;;;;;;3.22;0.90;;;;;;;;;;7397950;19;20102;-68
2022/10/05 20:39:03;;;;;;;2.55;0.90;;;;;;;;;;7394886;19;19999;-67
2022/10/05 20:41:29;;;;;;;3.03;0.88;;;;;;;;;;7395276;19;20006;-68
2022/10/05 20:43:54;;;;;;;3.75;1.27;;;;;;;;;;7398656;19;19998;-68
2022/10/05 20:46:19;;;;;;;5.63;0.93;;;;;;;;;;7395849;19;20150;-67
2022/10/05 20:48:45;;;;;;;5.95;1.17;;;;;;;;;;7397055;19;20596;-67
2022/10/05 20:51:10;;;;;;;4.75;1.10;;;;;;;;;;7395988;19;20330;-67
2022/10/05 20:53:35;;;;;;;3.50;1.20;;;;;;;;;;7396684;19;20028;-67
2022/10/05 20:56:03;;;;;;;2.53;0.80;;;;;;;;;;7394182;19;20002;-67
2022/10/05 20:58:28;;;;;;;5.65;1.10;;;;;;;;;;7396614;19;20017;-68
2022/10/05 21:03:37;;;;;;;3.65;1.40;;;;;;;;;;7396703;19;20870;-67
2022/10/05 21:06:03;;;;;;;5.95;1.10;;;;;;;;;;7395253;19;20006;-67
2022/10/05 21:08:28;;;;;;;3.15;0.90;;;;;;;;;;7396569;19;20003;-68
2022/10/05 21:10:53;;;;;;;4.95;1.10;;;;;;;;;;7395550;19;19999;-67
2022/10/05 21:13:18;;;;;;;3.28;1.05;;;;;;;;;;7396241;19;20021;-67
2022/10/05 21:15:44;;;;;;;3.97;0.98;;;;;;;;;;7394031;19;20007;-67
2022/10/05 21:18:09;;;;;;;4.05;0.98;;;;;;;;;;7396674;19;20014;-67
2022/10/05 21:20:34;;;;;;;4.00;1.30;;;;;;;;;;7394960;19;20034;-67
2022/10/05 21:23:00;;;;;;;1.52;0.85;;;;;;;;;;7395176;19;20379;-67
2022/10/05 21:25:25;;;;;;;1.85;1.20;;;;;;;;;;7392315;19;20032;-67
2022/10/05 21:27:51;;;;;;;5.35;1.48;;;;;;;;;;7397446;19;19999;-67
2022/10/05 21:30:16;;;;;;;2.03;0.70;;;;;;;;;;7395573;19;20019;-67
2022/10/05 21:32:41;;;;;;;2.42;0.90;;;;;;;;;;7393232;19;20338;-67
2022/10/05 21:35:07;;;;;;;2.05;0.90;;;;;;;;;;7394119;19;20010;-66
2022/10/05 21:37:32;;;;;;;4.03;1.20;;;;;;;;;;7395624;19;20508;-67
2022/10/05 21:39:57;;;;;;;4.35;1.20;;;;;;;;;;7392990;19;20029;-67
2022/10/05 21:42:23;;;;;;;7.03;1.10;;;;;;;;;;7391308;19;20077;-67
2022/10/05 21:44:48;;;;;;;2.90;0.93;;;;;;;;;;7394133;19;20716;-67
2022/10/05 21:47:13;;;;;;;3.25;0.77;;;;;;;;;;7393897;19;20010;-67
2022/10/05 21:49:40;;;;;;;3.78;0.70;;;;;;;;;;7393055;19;20122;-67
2022/10/05 21:52:05;;;;;;;3.50;1.00;;;;;;;;;;7394161;19;20010;-67
2022/10/05 21:54:31;;;;;;;7.15;1.10;;;;;;;;;;7392502;19;20034;-67
2022/10/05 21:56:58;;;;;;;3.58;0.80;;;;;;;;;;7394918;19;20002;-67
2022/10/05 21:59:29;;;;;;;3.33;0.95;;;;;;;;;;7392662;19;20107;-67
2022/10/05 22:01:54;;;;;;;2.28;0.90;;;;;;;;;;7393680;19;20018;-67
2022/10/05 22:04:20;;;;;;;2.25;0.88;;;;;;;;;;7390628;19;20003;-67
2022/10/05 22:06:45;;;;;;;5.50;0.88;;;;;;;;;;7392841;19;20006;-67
2022/10/05 22:09:11;;;;;;;1.88;0.80;;;;;;;;;;7393407;19;20006;-67
2022/10/05 22:11:36;;;;;;;2.47;0.90;;;;;;;;;;7393054;19;20068;-67
2022/10/05 22:14:02;;;;;;;3.05;1.08;;;;;;;;;;7394018;19;20327;-67
2022/10/05 22:16:42;;;;;;;5.35;1.20;;;;;;;;;;7392517;19;20013;-67
2022/10/05 22:19:13;;;;;;;3.38;0.80;;;;;;;;;;7394082;19;20404;-67
2022/10/05 22:21:40;;;;;;;2.80;1.00;;;;;;;;;;7390836;19;20458;-67
2022/10/05 22:24:06;;;;;;;3.85;1.27;;;;;;;;;;7388842;19;20518;-67
2022/10/05 22:26:33;;;;;;;3.08;1.20;;;;;;;;;;7393101;19;20077;-67
2022/10/05 22:29:00;;;;;;;3.50;0.80;;;;;;;;;;7393385;19;20030;-67
2022/10/05 22:31:26;;;;;;;5.15;0.90;;;;;;;;;;7392469;19;20002;-68
2022/10/05 22:33:51;;;;;;;7.90;1.30;;;;;;;;;;7391973;19;20014;-67
2022/10/05 22:36:17;;;;;;;1.13;0.77;;;;;;;;;;7393209;19;20035;-67
2022/10/05 22:38:45;;;;;;;2.13;0.70;;;;;;;;;;7391899;19;20352;-67
2022/10/05 22:41:12;;;;;;;1.10;0.70;;;;;;;;;;7391937;19;20027;-67
2022/10/05 22:43:37;;;;;;;4.25;0.77;;;;;;;;;;7393471;19;20339;-67
2022/10/05 22:46:11;;;;;;;3.40;1.08;;;;;;;;;;7389943;19;20046;-67
2022/10/05 22:48:37;;;;;;;5.43;0.90;;;;;;;;;;7389966;19;20013;-67
2022/10/05 22:51:03;;;;;;;2.65;1.13;;;;;;;;;;7394375;19;19994;-67
2022/10/05 22:53:28;;;;;;;2.38;0.88;;;;;;;;;;7391795;19;19994;-67
2022/10/05 22:55:53;;;;;;;2.90;1.00;;;;;;;;;;7391528;19;20030;-67
2022/10/05 22:58:19;;;;;;;1.33;0.80;;;;;;;;;;7392298;19;20014;-67
2022/10/05 23:00:45;;;;;;;3.35;0.93;;;;;;;;;;7393953;19;20018;-67
2022/10/05 23:03:10;;;;;;;3.45;0.95;;;;;;;;;;7391408;19;20007;-67
2022/10/05 23:05:36;;;;;;;2.38;1.02;;;;;;;;;;7392397;19;20015;-67
2022/10/05 23:08:02;;;;;;;6.32;0.77;;;;;;;;;;7391776;19;20037;-67
2022/10/05 23:10:28;;;;;;;2.55;0.80;;;;;;;;;;7390693;19;20074;-67
2022/10/05 23:12:55;;;;;;;2.20;0.88;;;;;;;;;;7391486;19;20107;-67
2022/10/05 23:15:21;;;;;;;2.83;1.10;;;;;;;;;;7388456;19;20020;-67
2022/10/05 23:17:46;;;;;;;1.13;0.70;;;;;;;;;;7392227;19;20002;-67
2022/10/05 23:20:12;;;;;;;0.80;0.60;;;;;;;;;;7393227;19;20320;-67
2022/10/05 23:22:38;;;;;;;2.72;0.90;;;;;;;;;;7387486;19;20002;-66
2022/10/05 23:25:05;;;;;;;3.70;1.20;;;;;;;;;;7388677;19;20501;-67
2022/10/05 23:27:38;;;;;;;1.55;0.90;;;;;;;;;;7390601;19;20022;-67
2022/10/05 23:30:06;;;;;;;1.52;0.82;;;;;;;;;;7393094;19;20045;-67
2022/10/05 23:32:31;;;;;;;1.60;0.98;;;;;;;;;;7389371;19;20039;-67
2022/10/05 23:34:56;;;;;;;3.53;0.90;;;;;;;;;;7394376;19;19998;-66
2022/10/05 23:37:22;;;;;;;2.35;0.40;;;;;;;;;;7400076;19;20103;-67
2022/10/05 23:39:47;;;;;;;1.20;0.50;;;;;;;;;;7395989;19;20041;-67
2022/10/05 23:42:13;;;;;;;1.48;0.73;;;;;;;;;;7398287;19;20465;-67
2022/10/05 23:44:38;;;;;;;1.67;0.88;;;;;;;;;;7395756;19;20018;-66
2022/10/05 23:47:04;;;;;;;1.52;0.90;;;;;;;;;;7399606;19;20002;-66
2022/10/05 23:49:29;;;;;;;1.52;0.80;;;;;;;;;;7396666;19;20466;-66
2022/10/05 23:51:54;;;;;;;2.20;0.73;;;;;;;;;;7397996;19;20014;-67
2022/10/05 23:54:20;;;;;;;1.52;0.68;;;;;;;;;;7399082;19;20010;-67
2022/10/05 23:56:45;;;;;;;1.60;0.80;;;;;;;;;;7394911;19;20017;-67
2022/10/05 23:59:10;;;;;;;1.00;0.60;;;;;;;;;;7394888;19;20011;-67
